createdAt,value
2017-12-20T00:00:52.676Z,53.6
2017-12-20T00:17:40.365Z,53.6
2017-12-20T00:34:27.885Z,53.6
2017-12-20T00:51:15.461Z,53.6
2017-12-20T01:08:03.109Z,53.6
2017-12-20T01:24:50.555Z,53.6
2017-12-20T01:41:38.012Z,53.2
2017-12-20T01:58:25.464Z,53.2
2017-12-20T02:15:12.840Z,53.2
2017-12-20T02:32:00.189Z,53.2
2017-12-20T02:48:47.563Z,53.2
2017-12-20T03:05:35.442Z,53.2
2017-12-20T03:22:21.962Z,53.2
2017-12-20T03:39:09.165Z,52.4
2017-12-20T03:55:56.407Z,52.4
2017-12-20T04:12:43.424Z,52.4
2017-12-20T04:29:30.577Z,52.4
2017-12-20T04:46:17.445Z,52.4
2017-12-20T05:03:04.370Z,52.4
2017-12-20T05:19:51.265Z,52.4
2017-12-20T05:36:38.098Z,52.4
2017-12-20T05:53:24.712Z,52.4
2017-12-20T06:10:11.517Z,52.4
2017-12-20T06:26:58.339Z,52.4
2017-12-20T06:43:45.172Z,52.4
2017-12-20T07:00:31.958Z,52.4
2017-12-20T07:17:18.777Z,52.4
2017-12-20T07:34:05.491Z,52.4
2017-12-20T07:50:52.295Z,52.4
2017-12-20T08:07:39.242Z,52.4
2017-12-20T08:24:26.219Z,52.4
2017-12-20T08:41:13.358Z,54.0
2017-12-20T08:58:00.220Z,54.4
2017-12-20T09:14:47.308Z,54.4
2017-12-20T09:31:34.501Z,54.4
2017-12-20T09:48:21.650Z,54.4
2017-12-20T10:05:08.904Z,54.4
2017-12-20T10:21:56.577Z,54.4
2017-12-20T10:38:44.268Z,54.4
2017-12-20T10:55:32.050Z,54.4
2017-12-20T11:12:19.822Z,54.4
2017-12-20T11:29:07.606Z,54.4
2017-12-20T11:45:55.451Z,54.4
2017-12-20T12:02:43.345Z,54.0
2017-12-20T12:19:31.152Z,54.0
2017-12-20T12:36:19.000Z,54.0
2017-12-20T12:53:06.959Z,54.0
2017-12-20T13:09:54.766Z,54.0
2017-12-20T13:26:42.642Z,54.0
2017-12-20T13:43:30.468Z,54.0
2017-12-20T14:00:18.357Z,53.6
2017-12-20T14:17:06.404Z,53.6
2017-12-20T14:33:54.231Z,53.6
2017-12-20T14:50:42.204Z,53.6
2017-12-20T15:07:30.799Z,53.6
2017-12-20T15:24:18.255Z,53.6
2017-12-20T15:41:06.392Z,53.6
2017-12-20T15:57:54.569Z,53.6
2017-12-20T16:14:42.647Z,54.0
2017-12-20T16:31:30.735Z,54.0
2017-12-20T16:48:18.886Z,54.8
2017-12-20T17:05:06.914Z,54.8
2017-12-20T17:21:55.106Z,54.8
2017-12-20T17:38:43.231Z,55.2
2017-12-20T17:55:31.408Z,55.6
2017-12-20T18:12:19.749Z,55.6
2017-12-20T18:29:07.906Z,56.0
2017-12-20T18:45:55.998Z,56.0
2017-12-20T19:02:44.278Z,56.0
2017-12-20T19:19:32.223Z,56.0
2017-12-20T19:36:19.852Z,56.0
2017-12-20T19:53:07.478Z,56.0
2017-12-20T20:09:55.174Z,55.6
2017-12-20T20:26:42.682Z,55.6
2017-12-20T20:43:30.418Z,55.6
2017-12-20T21:00:17.725Z,55.6
2017-12-20T21:17:05.259Z,55.6
2017-12-20T21:33:52.827Z,55.2
2017-12-20T21:50:40.476Z,55.6
2017-12-20T22:07:28.188Z,55.6
2017-12-20T22:24:15.977Z,55.6
2017-12-20T22:41:03.796Z,55.6
2017-12-20T22:57:51.718Z,55.2
2017-12-20T23:14:39.730Z,55.2
2017-12-20T23:31:27.472Z,54.8
2017-12-20T23:48:15.234Z,54.8
